sensor_id;sensor_type;location;lat;lon;timestamp;P1;durP1;ratioP1;P2;durP2;ratioP2
71366;SDS011;60030;52.274;8.040;2023-02-28T00:00:09;14.20;;;8.00;;
71366;SDS011;60030;52.274;8.040;2023-02-28T00:02:37;9.83;;;6.73;;
71366;SDS011;60030;52.274;8.040;2023-02-28T00:05:05;10.33;;;7.33;;
71366;SDS011;60030;52.274;8.040;2023-02-28T00:07:34;13.67;;;6.93;;
71366;SDS011;60030;52.274;8.040;2023-02-28T00:10:01;11.67;;;7.10;;
71366;SDS011;60030;52.274;8.040;2023-02-28T00:12:29;11.80;;;7.33;;
71366;SDS011;60030;52.274;8.040;2023-02-28T00:14:57;11.47;;;7.00;;
71366;SDS011;60030;52.274;8.040;2023-02-28T00:17:25;11.17;;;6.63;;
71366;SDS011;60030;52.274;8.040;2023-02-28T00:19:52;12.93;;;8.00;;
71366;SDS011;60030;52.274;8.040;2023-02-28T00:22:19;9.50;;;7.00;;
71366;SDS011;60030;52.274;8.040;2023-02-28T00:24:47;9.90;;;7.27;;
71366;SDS011;60030;52.274;8.040;2023-02-28T00:27:14;9.40;;;6.97;;
71366;SDS011;60030;52.274;8.040;2023-02-28T00:29:41;10.13;;;7.07;;
71366;SDS011;60030;52.274;8.040;2023-02-28T00:32:11;11.00;;;7.27;;
71366;SDS011;60030;52.274;8.040;2023-02-28T00:34:38;13.77;;;7.83;;
71366;SDS011;60030;52.274;8.040;2023-02-28T00:37:08;11.67;;;7.13;;
71366;SDS011;60030;52.274;8.040;2023-02-28T00:39:37;12.73;;;7.57;;
71366;SDS011;60030;52.274;8.040;2023-02-28T00:42:05;13.83;;;8.00;;
71366;SDS011;60030;52.274;8.040;2023-02-28T00:44:33;12.87;;;7.67;;
71366;SDS011;60030;52.274;8.040;2023-02-28T00:47:00;9.80;;;7.23;;
71366;SDS011;60030;52.274;8.040;2023-02-28T00:49:29;11.33;;;6.60;;
71366;SDS011;60030;52.274;8.040;2023-02-28T00:51:56;11.93;;;6.70;;
71366;SDS011;60030;52.274;8.040;2023-02-28T00:54:25;11.60;;;7.10;;
71366;SDS011;60030;52.274;8.040;2023-02-28T00:56:52;11.23;;;7.27;;
71366;SDS011;60030;52.274;8.040;2023-02-28T00:59:19;9.20;;;6.60;;
71366;SDS011;60030;52.274;8.040;2023-02-28T01:01:46;12.70;;;7.33;;
71366;SDS011;60030;52.274;8.040;2023-02-28T01:04:14;10.77;;;7.90;;
71366;SDS011;60030;52.274;8.040;2023-02-28T01:06:42;12.37;;;7.83;;
71366;SDS011;60030;52.274;8.040;2023-02-28T01:09:10;11.97;;;7.10;;
71366;SDS011;60030;52.274;8.040;2023-02-28T01:11:38;9.53;;;6.83;;
71366;SDS011;60030;52.274;8.040;2023-02-28T01:14:06;11.37;;;7.17;;
71366;SDS011;60030;52.274;8.040;2023-02-28T01:16:35;12.37;;;7.47;;
71366;SDS011;60030;52.274;8.040;2023-02-28T01:19:02;10.93;;;7.17;;
71366;SDS011;60030;52.274;8.040;2023-02-28T01:21:30;14.33;;;7.57;;
71366;SDS011;60030;52.274;8.040;2023-02-28T01:23:58;9.90;;;7.13;;
71366;SDS011;60030;52.274;8.040;2023-02-28T01:26:25;10.87;;;6.33;;
71366;SDS011;60030;52.274;8.040;2023-02-28T01:28:53;11.70;;;6.53;;
71366;SDS011;60030;52.274;8.040;2023-02-28T01:31:20;13.40;;;7.53;;
71366;SDS011;60030;52.274;8.040;2023-02-28T01:33:48;9.43;;;7.10;;
71366;SDS011;60030;52.274;8.040;2023-02-28T01:36:16;10.23;;;6.87;;
71366;SDS011;60030;52.274;8.040;2023-02-28T01:38:44;9.83;;;6.63;;
71366;SDS011;60030;52.274;8.040;2023-02-28T01:41:15;10.97;;;7.13;;
71366;SDS011;60030;52.274;8.040;2023-02-28T01:43:57;11.10;;;6.43;;
71366;SDS011;60030;52.274;8.040;2023-02-28T01:46:28;11.80;;;6.77;;
71366;SDS011;60030;52.274;8.040;2023-02-28T01:48:57;9.60;;;6.63;;
71366;SDS011;60030;52.274;8.040;2023-02-28T01:51:31;9.63;;;6.97;;
71366;SDS011;60030;52.274;8.040;2023-02-28T01:54:04;13.23;;;7.60;;
71366;SDS011;60030;52.274;8.040;2023-02-28T01:56:41;11.63;;;6.77;;
71366;SDS011;60030;52.274;8.040;2023-02-28T01:59:12;9.70;;;6.40;;
71366;SDS011;60030;52.274;8.040;2023-02-28T02:01:44;11.27;;;7.33;;
71366;SDS011;60030;52.274;8.040;2023-02-28T02:04:12;11.67;;;7.17;;
71366;SDS011;60030;52.274;8.040;2023-02-28T02:06:42;13.30;;;7.07;;
71366;SDS011;60030;52.274;8.040;2023-02-28T02:09:12;13.03;;;7.23;;
71366;SDS011;60030;52.274;8.040;2023-02-28T02:11:40;9.43;;;6.77;;
71366;SDS011;60030;52.274;8.040;2023-02-28T02:14:20;9.87;;;6.77;;
71366;SDS011;60030;52.274;8.040;2023-02-28T02:17:12;11.23;;;6.67;;
71366;SDS011;60030;52.274;8.040;2023-02-28T02:22:53;9.80;;;7.47;;
71366;SDS011;60030;52.274;8.040;2023-02-28T02:25:47;11.57;;;7.17;;
71366;SDS011;60030;52.274;8.040;2023-02-28T02:28:35;12.80;;;7.90;;
71366;SDS011;60030;52.274;8.040;2023-02-28T02:34:24;14.43;;;9.07;;
71366;SDS011;60030;52.274;8.040;2023-02-28T02:37:08;15.23;;;8.90;;
71366;SDS011;60030;52.274;8.040;2023-02-28T02:39:44;14.93;;;8.53;;
71366;SDS011;60030;52.274;8.040;2023-02-28T02:42:18;14.63;;;8.67;;
71366;SDS011;60030;52.274;8.040;2023-02-28T02:44:50;13.40;;;8.80;;
71366;SDS011;60030;52.274;8.040;2023-02-28T02:47:23;16.77;;;8.57;;
71366;SDS011;60030;52.274;8.040;2023-02-28T02:49:55;14.60;;;9.10;;
71366;SDS011;60030;52.274;8.040;2023-02-28T02:52:28;15.37;;;8.43;;
71366;SDS011;60030;52.274;8.040;2023-02-28T02:55:03;14.63;;;9.17;;
71366;SDS011;60030;52.274;8.040;2023-02-28T02:57:33;14.57;;;8.70;;
71366;SDS011;60030;52.274;8.040;2023-02-28T03:00:05;12.53;;;8.23;;
71366;SDS011;60030;52.274;8.040;2023-02-28T03:02:35;17.80;;;8.80;;
71366;SDS011;60030;52.274;8.040;2023-02-28T03:05:07;12.90;;;8.20;;
71366;SDS011;60030;52.274;8.040;2023-02-28T03:07:40;17.97;;;8.63;;
71366;SDS011;60030;52.274;8.040;2023-02-28T03:13:00;14.70;;;8.17;;
71366;SDS011;60030;52.274;8.040;2023-02-28T03:15:37;11.97;;;8.10;;
71366;SDS011;60030;52.274;8.040;2023-02-28T03:18:19;13.00;;;7.90;;
71366;SDS011;60030;52.274;8.040;2023-02-28T03:20:59;15.17;;;8.60;;
71366;SDS011;60030;52.274;8.040;2023-02-28T03:23:38;15.17;;;9.00;;
71366;SDS011;60030;52.274;8.040;2023-02-28T03:26:12;16.03;;;8.77;;
71366;SDS011;60030;52.274;8.040;2023-02-28T03:28:49;15.07;;;8.50;;
71366;SDS011;60030;52.274;8.040;2023-02-28T03:31:21;14.03;;;8.50;;
71366;SDS011;60030;52.274;8.040;2023-02-28T03:33:54;13.03;;;8.67;;
71366;SDS011;60030;52.274;8.040;2023-02-28T03:36:27;14.07;;;8.63;;
71366;SDS011;60030;52.274;8.040;2023-02-28T03:38:59;13.87;;;8.73;;
71366;SDS011;60030;52.274;8.040;2023-02-28T03:41:31;11.87;;;8.50;;
71366;SDS011;60030;52.274;8.040;2023-02-28T03:44:05;17.33;;;9.10;;
71366;SDS011;60030;52.274;8.040;2023-02-28T03:46:41;15.87;;;8.10;;
71366;SDS011;60030;52.274;8.040;2023-02-28T03:49:13;12.87;;;8.07;;
71366;SDS011;60030;52.274;8.040;2023-02-28T03:51:44;11.77;;;7.90;;
71366;SDS011;60030;52.274;8.040;2023-02-28T03:54:13;12.27;;;6.93;;
71366;SDS011;60030;52.274;8.040;2023-02-28T03:56:45;12.43;;;7.73;;
71366;SDS011;60030;52.274;8.040;2023-02-28T03:59:20;12.90;;;7.13;;
71366;SDS011;60030;52.274;8.040;2023-02-28T04:01:51;13.20;;;6.60;;
71366;SDS011;60030;52.274;8.040;2023-02-28T04:04:20;9.47;;;6.43;;
71366;SDS011;60030;52.274;8.040;2023-02-28T04:06:50;7.27;;;5.83;;
71366;SDS011;60030;52.274;8.040;2023-02-28T04:09:19;8.83;;;5.37;;
71366;SDS011;60030;52.274;8.040;2023-02-28T04:11:47;9.70;;;5.60;;
71366;SDS011;60030;52.274;8.040;2023-02-28T04:14:18;8.50;;;5.23;;
71366;SDS011;60030;52.274;8.040;2023-02-28T04:16:45;8.50;;;5.60;;
71366;SDS011;60030;52.274;8.040;2023-02-28T04:19:12;8.37;;;5.40;;
71366;SDS011;60030;52.274;8.040;2023-02-28T04:21:41;6.43;;;4.70;;
71366;SDS011;60030;52.274;8.040;2023-02-28T04:24:11;8.63;;;5.00;;
71366;SDS011;60030;52.274;8.040;2023-02-28T04:26:40;8.03;;;5.10;;
71366;SDS011;60030;52.274;8.040;2023-02-28T04:29:10;9.47;;;4.97;;
71366;SDS011;60030;52.274;8.040;2023-02-28T04:31:38;7.10;;;4.57;;
71366;SDS011;60030;52.274;8.040;2023-02-28T04:34:05;6.73;;;4.90;;
71366;SDS011;60030;52.274;8.040;2023-02-28T04:36:33;8.27;;;4.63;;
71366;SDS011;60030;52.274;8.040;2023-02-28T04:39:00;8.23;;;5.10;;
71366;SDS011;60030;52.274;8.040;2023-02-28T04:41:29;7.87;;;4.73;;
71366;SDS011;60030;52.274;8.040;2023-02-28T04:43:56;7.53;;;4.87;;
71366;SDS011;60030;52.274;8.040;2023-02-28T04:46:23;10.13;;;4.60;;
71366;SDS011;60030;52.274;8.040;2023-02-28T04:48:50;6.90;;;4.53;;
71366;SDS011;60030;52.274;8.040;2023-02-28T04:51:18;6.83;;;4.30;;
71366;SDS011;60030;52.274;8.040;2023-02-28T04:53:46;6.47;;;4.40;;
71366;SDS011;60030;52.274;8.040;2023-02-28T04:56:14;5.63;;;4.30;;
71366;SDS011;60030;52.274;8.040;2023-02-28T04:58:44;7.77;;;4.57;;
71366;SDS011;60030;52.274;8.040;2023-02-28T05:01:19;7.47;;;4.67;;
71366;SDS011;60030;52.274;8.040;2023-02-28T05:03:48;6.83;;;4.67;;
71366;SDS011;60030;52.274;8.040;2023-02-28T05:06:16;6.83;;;5.10;;
71366;SDS011;60030;52.274;8.040;2023-02-28T05:08:43;7.57;;;5.07;;
71366;SDS011;60030;52.274;8.040;2023-02-28T05:11:13;7.40;;;4.87;;
71366;SDS011;60030;52.274;8.040;2023-02-28T05:13:46;7.37;;;5.07;;
71366;SDS011;60030;52.274;8.040;2023-02-28T05:16:13;7.03;;;5.37;;
71366;SDS011;60030;52.274;8.040;2023-02-28T05:18:41;7.17;;;5.30;;
71366;SDS011;60030;52.274;8.040;2023-02-28T05:21:15;7.53;;;4.87;;
71366;SDS011;60030;52.274;8.040;2023-02-28T05:23:50;7.43;;;4.90;;
71366;SDS011;60030;52.274;8.040;2023-02-28T05:26:17;11.00;;;4.93;;
71366;SDS011;60030;52.274;8.040;2023-02-28T05:28:45;6.73;;;5.00;;
71366;SDS011;60030;52.274;8.040;2023-02-28T05:31:12;6.67;;;4.73;;
71366;SDS011;60030;52.274;8.040;2023-02-28T05:33:40;8.97;;;4.93;;
71366;SDS011;60030;52.274;8.040;2023-02-28T05:36:07;9.07;;;5.20;;
71366;SDS011;60030;52.274;8.040;2023-02-28T05:38:35;6.97;;;4.50;;
71366;SDS011;60030;52.274;8.040;2023-02-28T05:41:04;9.07;;;5.00;;
71366;SDS011;60030;52.274;8.040;2023-02-28T05:43:33;8.10;;;4.80;;
71366;SDS011;60030;52.274;8.040;2023-02-28T05:46:03;7.77;;;4.73;;
71366;SDS011;60030;52.274;8.040;2023-02-28T05:48:31;8.07;;;4.47;;
71366;SDS011;60030;52.274;8.040;2023-02-28T05:50:58;7.67;;;4.80;;
71366;SDS011;60030;52.274;8.040;2023-02-28T05:53:25;5.70;;;4.37;;
71366;SDS011;60030;52.274;8.040;2023-02-28T05:55:52;6.60;;;4.43;;
71366;SDS011;60030;52.274;8.040;2023-02-28T05:58:20;6.83;;;4.60;;
71366;SDS011;60030;52.274;8.040;2023-02-28T06:00:47;5.67;;;4.47;;
71366;SDS011;60030;52.274;8.040;2023-02-28T06:03:15;7.10;;;4.90;;
71366;SDS011;60030;52.274;8.040;2023-02-28T06:05:43;7.87;;;5.10;;
71366;SDS011;60030;52.274;8.040;2023-02-28T06:08:10;7.73;;;5.37;;
71366;SDS011;60030;52.274;8.040;2023-02-28T06:10:37;7.27;;;4.83;;
71366;SDS011;60030;52.274;8.040;2023-02-28T06:13:04;7.30;;;4.63;;
71366;SDS011;60030;52.274;8.040;2023-02-28T06:15:31;7.80;;;5.23;;
71366;SDS011;60030;52.274;8.040;2023-02-28T06:17:59;6.80;;;4.63;;
71366;SDS011;60030;52.274;8.040;2023-02-28T06:20:27;11.20;;;5.47;;
71366;SDS011;60030;52.274;8.040;2023-02-28T06:22:55;6.53;;;4.90;;
71366;SDS011;60030;52.274;8.040;2023-02-28T06:25:23;8.17;;;5.30;;
71366;SDS011;60030;52.274;8.040;2023-02-28T06:27:51;13.37;;;6.33;;
71366;SDS011;60030;52.274;8.040;2023-02-28T06:30:18;9.63;;;6.43;;
71366;SDS011;60030;52.274;8.040;2023-02-28T06:32:49;13.90;;;5.73;;
71366;SDS011;60030;52.274;8.040;2023-02-28T06:35:16;8.57;;;5.80;;
71366;SDS011;60030;52.274;8.040;2023-02-28T06:37:44;11.43;;;6.73;;
71366;SDS011;60030;52.274;8.040;2023-02-28T06:40:12;8.80;;;5.87;;
71366;SDS011;60030;52.274;8.040;2023-02-28T06:42:40;11.13;;;6.20;;
71366;SDS011;60030;52.274;8.040;2023-02-28T06:45:08;8.73;;;6.03;;
71366;SDS011;60030;52.274;8.040;2023-02-28T06:47:36;9.73;;;6.27;;
71366;SDS011;60030;52.274;8.040;2023-02-28T06:50:04;8.40;;;6.17;;
71366;SDS011;60030;52.274;8.040;2023-02-28T06:52:32;8.93;;;6.17;;
71366;SDS011;60030;52.274;8.040;2023-02-28T06:55:03;10.67;;;5.83;;
71366;SDS011;60030;52.274;8.040;2023-02-28T06:57:31;10.77;;;6.10;;
71366;SDS011;60030;52.274;8.040;2023-02-28T06:59:59;12.40;;;6.60;;
71366;SDS011;60030;52.274;8.040;2023-02-28T07:02:32;12.70;;;6.73;;
71366;SDS011;60030;52.274;8.040;2023-02-28T07:05:00;10.33;;;6.67;;
71366;SDS011;60030;52.274;8.040;2023-02-28T07:07:27;7.83;;;6.07;;
71366;SDS011;60030;52.274;8.040;2023-02-28T07:09:54;12.77;;;6.77;;
71366;SDS011;60030;52.274;8.040;2023-02-28T07:12:23;11.83;;;6.77;;
71366;SDS011;60030;52.274;8.040;2023-02-28T07:14:50;14.80;;;7.43;;
71366;SDS011;60030;52.274;8.040;2023-02-28T07:17:17;10.47;;;7.17;;
71366;SDS011;60030;52.274;8.040;2023-02-28T07:19:44;10.10;;;7.10;;
71366;SDS011;60030;52.274;8.040;2023-02-28T07:22:11;12.70;;;6.97;;
71366;SDS011;60030;52.274;8.040;2023-02-28T07:24:38;10.60;;;7.10;;
71366;SDS011;60030;52.274;8.040;2023-02-28T07:27:05;12.30;;;7.13;;
71366;SDS011;60030;52.274;8.040;2023-02-28T07:29:33;10.37;;;7.03;;
71366;SDS011;60030;52.274;8.040;2023-02-28T07:32:00;14.23;;;8.20;;
71366;SDS011;60030;52.274;8.040;2023-02-28T07:34:27;10.30;;;7.10;;
71366;SDS011;60030;52.274;8.040;2023-02-28T07:36:55;13.53;;;7.33;;
71366;SDS011;60030;52.274;8.040;2023-02-28T07:39:22;12.83;;;7.97;;
71366;SDS011;60030;52.274;8.040;2023-02-28T07:41:49;14.77;;;9.37;;
71366;SDS011;60030;52.274;8.040;2023-02-28T07:44:16;10.60;;;7.30;;
71366;SDS011;60030;52.274;8.040;2023-02-28T07:46:44;14.63;;;8.10;;
71366;SDS011;60030;52.274;8.040;2023-02-28T07:49:11;15.60;;;8.87;;
71366;SDS011;60030;52.274;8.040;2023-02-28T07:51:38;11.30;;;7.50;;
71366;SDS011;60030;52.274;8.040;2023-02-28T07:54:05;11.53;;;7.93;;
71366;SDS011;60030;52.274;8.040;2023-02-28T07:56:33;16.50;;;8.33;;
71366;SDS011;60030;52.274;8.040;2023-02-28T07:59:00;11.83;;;7.87;;
71366;SDS011;60030;52.274;8.040;2023-02-28T08:01:27;15.13;;;8.23;;
71366;SDS011;60030;52.274;8.040;2023-02-28T08:03:56;13.43;;;8.47;;
71366;SDS011;60030;52.274;8.040;2023-02-28T08:06:23;11.57;;;7.57;;
71366;SDS011;60030;52.274;8.040;2023-02-28T08:08:52;9.43;;;7.23;;
71366;SDS011;60030;52.274;8.040;2023-02-28T08:11:21;11.90;;;7.43;;
71366;SDS011;60030;52.274;8.040;2023-02-28T08:13:48;13.63;;;8.33;;
71366;SDS011;60030;52.274;8.040;2023-02-28T08:16:16;11.90;;;8.27;;
71366;SDS011;60030;52.274;8.040;2023-02-28T08:18:47;13.07;;;8.53;;
71366;SDS011;60030;52.274;8.040;2023-02-28T08:21:16;13.57;;;8.63;;
71366;SDS011;60030;52.274;8.040;2023-02-28T08:23:43;13.20;;;9.23;;
71366;SDS011;60030;52.274;8.040;2023-02-28T08:26:13;13.30;;;8.40;;
71366;SDS011;60030;52.274;8.040;2023-02-28T08:28:40;12.77;;;8.63;;
71366;SDS011;60030;52.274;8.040;2023-02-28T08:31:08;10.03;;;7.27;;
71366;SDS011;60030;52.274;8.040;2023-02-28T08:33:36;10.30;;;7.40;;
71366;SDS011;60030;52.274;8.040;2023-02-28T08:36:04;10.47;;;6.80;;
71366;SDS011;60030;52.274;8.040;2023-02-28T08:38:34;8.67;;;5.77;;
71366;SDS011;60030;52.274;8.040;2023-02-28T08:41:03;7.83;;;6.00;;
71366;SDS011;60030;52.274;8.040;2023-02-28T08:43:32;5.83;;;4.80;;
71366;SDS011;60030;52.274;8.040;2023-02-28T08:46:00;9.47;;;5.10;;
71366;SDS011;60030;52.274;8.040;2023-02-28T08:48:28;7.33;;;5.43;;
71366;SDS011;60030;52.274;8.040;2023-02-28T08:50:56;9.23;;;5.20;;
71366;SDS011;60030;52.274;8.040;2023-02-28T08:53:23;7.33;;;4.83;;
71366;SDS011;60030;52.274;8.040;2023-02-28T08:55:59;7.00;;;5.03;;
71366;SDS011;60030;52.274;8.040;2023-02-28T08:58:27;5.87;;;4.80;;
71366;SDS011;60030;52.274;8.040;2023-02-28T09:00:54;7.80;;;4.60;;
71366;SDS011;60030;52.274;8.040;2023-02-28T09:03:22;9.37;;;5.23;;
71366;SDS011;60030;52.274;8.040;2023-02-28T09:05:53;11.03;;;5.23;;
71366;SDS011;60030;52.274;8.040;2023-02-28T09:08:21;9.07;;;5.80;;
71366;SDS011;60030;52.274;8.040;2023-02-28T09:10:49;5.90;;;4.60;;
71366;SDS011;60030;52.274;8.040;2023-02-28T09:13:18;8.97;;;5.20;;
71366;SDS011;60030;52.274;8.040;2023-02-28T09:15:45;4.97;;;3.37;;
71366;SDS011;60030;52.274;8.040;2023-02-28T09:18:12;4.23;;;3.00;;
71366;SDS011;60030;52.274;8.040;2023-02-28T09:20:40;7.93;;;3.30;;
71366;SDS011;60030;52.274;8.040;2023-02-28T09:23:08;8.90;;;3.80;;
71366;SDS011;60030;52.274;8.040;2023-02-28T09:25:36;6.07;;;3.13;;
71366;SDS011;60030;52.274;8.040;2023-02-28T09:28:04;4.93;;;3.00;;
71366;SDS011;60030;52.274;8.040;2023-02-28T09:30:32;7.20;;;3.67;;
71366;SDS011;60030;52.274;8.040;2023-02-28T09:33:00;4.03;;;3.40;;
71366;SDS011;60030;52.274;8.040;2023-02-28T09:35:27;4.73;;;3.00;;
71366;SDS011;60030;52.274;8.040;2023-02-28T09:37:55;5.27;;;2.60;;
71366;SDS011;60030;52.274;8.040;2023-02-28T09:40:24;3.90;;;2.27;;
71366;SDS011;60030;52.274;8.040;2023-02-28T09:42:52;4.57;;;1.80;;
71366;SDS011;60030;52.274;8.040;2023-02-28T09:45:22;4.60;;;1.47;;
71366;SDS011;60030;52.274;8.040;2023-02-28T09:47:55;3.57;;;1.73;;
71366;SDS011;60030;52.274;8.040;2023-02-28T09:50:28;1.90;;;1.40;;
71366;SDS011;60030;52.274;8.040;2023-02-28T09:52:58;2.33;;;1.20;;
71366;SDS011;60030;52.274;8.040;2023-02-28T09:55:29;2.13;;;1.50;;
71366;SDS011;60030;52.274;8.040;2023-02-28T09:58:00;2.80;;;1.40;;
71366;SDS011;60030;52.274;8.040;2023-02-28T10:00:29;2.37;;;1.30;;
71366;SDS011;60030;52.274;8.040;2023-02-28T10:05:59;1.47;;;0.90;;
71366;SDS011;60030;52.274;8.040;2023-02-28T10:08:35;0.93;;;0.83;;
71366;SDS011;60030;52.274;8.040;2023-02-28T10:11:07;3.37;;;0.90;;
71366;SDS011;60030;52.274;8.040;2023-02-28T10:13:40;1.67;;;1.20;;
71366;SDS011;60030;52.274;8.040;2023-02-28T10:16:22;3.30;;;1.23;;
71366;SDS011;60030;52.274;8.040;2023-02-28T10:18:58;4.50;;;1.23;;
71366;SDS011;60030;52.274;8.040;2023-02-28T10:21:30;1.67;;;1.30;;
71366;SDS011;60030;52.274;8.040;2023-02-28T10:24:03;1.57;;;0.90;;
71366;SDS011;60030;52.274;8.040;2023-02-28T10:26:37;1.80;;;1.20;;
71366;SDS011;60030;52.274;8.040;2023-02-28T10:29:04;3.23;;;1.00;;
71366;SDS011;60030;52.274;8.040;2023-02-28T10:31:31;2.23;;;1.00;;
71366;SDS011;60030;52.274;8.040;2023-02-28T10:33:59;2.17;;;1.20;;
71366;SDS011;60030;52.274;8.040;2023-02-28T10:36:28;1.37;;;1.10;;
71366;SDS011;60030;52.274;8.040;2023-02-28T10:38:58;1.87;;;1.10;;
71366;SDS011;60030;52.274;8.040;2023-02-28T10:41:27;2.60;;;1.33;;
71366;SDS011;60030;52.274;8.040;2023-02-28T10:46:41;3.17;;;1.07;;
71366;SDS011;60030;52.274;8.040;2023-02-28T10:49:14;1.87;;;1.00;;
71366;SDS011;60030;52.274;8.040;2023-02-28T10:51:44;3.13;;;1.00;;
71366;SDS011;60030;52.274;8.040;2023-02-28T10:54:15;1.90;;;1.00;;
71366;SDS011;60030;52.274;8.040;2023-02-28T10:56:44;2.10;;;1.17;;
71366;SDS011;60030;52.274;8.040;2023-02-28T11:01:57;1.33;;;0.97;;
71366;SDS011;60030;52.274;8.040;2023-02-28T11:04:35;1.80;;;1.07;;
71366;SDS011;60030;52.274;8.040;2023-02-28T11:07:05;3.00;;;1.10;;
71366;SDS011;60030;52.274;8.040;2023-02-28T11:09:45;1.90;;;0.87;;
71366;SDS011;60030;52.274;8.040;2023-02-28T11:12:19;1.70;;;1.10;;
71366;SDS011;60030;52.274;8.040;2023-02-28T11:14:49;1.83;;;1.33;;
71366;SDS011;60030;52.274;8.040;2023-02-28T11:17:20;2.03;;;1.33;;
71366;SDS011;60030;52.274;8.040;2023-02-28T11:19:51;4.37;;;2.60;;
71366;SDS011;60030;52.274;8.040;2023-02-28T11:22:21;2.97;;;1.60;;
71366;SDS011;60030;52.274;8.040;2023-02-28T11:24:54;1.80;;;1.43;;
71366;SDS011;60030;52.274;8.040;2023-02-28T11:27:40;1.10;;;1.00;;
71366;SDS011;60030;52.274;8.040;2023-02-28T11:30:25;2.57;;;1.40;;
71366;SDS011;60030;52.274;8.040;2023-02-28T11:32:55;3.83;;;1.63;;
71366;SDS011;60030;52.274;8.040;2023-02-28T11:35:24;2.17;;;1.40;;
71366;SDS011;60030;52.274;8.040;2023-02-28T11:37:56;2.50;;;1.70;;
71366;SDS011;60030;52.274;8.040;2023-02-28T11:40:26;1.83;;;1.43;;
71366;SDS011;60030;52.274;8.040;2023-02-28T11:43:01;3.53;;;1.40;;
71366;SDS011;60030;52.274;8.040;2023-02-28T11:45:44;3.20;;;1.60;;
71366;SDS011;60030;52.274;8.040;2023-02-28T11:48:22;1.87;;;1.40;;
71366;SDS011;60030;52.274;8.040;2023-02-28T11:51:03;2.50;;;1.50;;
71366;SDS011;60030;52.274;8.040;2023-02-28T11:53:50;6.17;;;1.80;;
71366;SDS011;60030;52.274;8.040;2023-02-28T11:56:32;3.37;;;1.63;;
71366;SDS011;60030;52.274;8.040;2023-02-28T11:59:17;1.70;;;1.60;;
71366;SDS011;60030;52.274;8.040;2023-02-28T12:02:03;1.70;;;1.37;;
71366;SDS011;60030;52.274;8.040;2023-02-28T12:04:49;3.13;;;2.03;;
71366;SDS011;60030;52.274;8.040;2023-02-28T12:07:28;3.30;;;2.00;;
71366;SDS011;60030;52.274;8.040;2023-02-28T12:10:05;3.93;;;1.80;;
71366;SDS011;60030;52.274;8.040;2023-02-28T12:12:45;3.50;;;1.80;;
71366;SDS011;60030;52.274;8.040;2023-02-28T12:15:32;2.70;;;1.87;;
71366;SDS011;60030;52.274;8.040;2023-02-28T12:21:15;3.13;;;1.63;;
71366;SDS011;60030;52.274;8.040;2023-02-28T12:23:59;2.37;;;1.70;;
71366;SDS011;60030;52.274;8.040;2023-02-28T12:26:44;2.60;;;1.77;;
71366;SDS011;60030;52.274;8.040;2023-02-28T12:29:14;2.47;;;1.70;;
71366;SDS011;60030;52.274;8.040;2023-02-28T12:31:47;1.97;;;1.50;;
71366;SDS011;60030;52.274;8.040;2023-02-28T12:34:19;2.80;;;1.50;;
71366;SDS011;60030;52.274;8.040;2023-02-28T12:36:49;3.35;;;1.90;;
71366;SDS011;60030;52.274;8.040;2023-02-28T12:39:23;3.17;;;1.67;;
71366;SDS011;60030;52.274;8.040;2023-02-28T12:41:56;3.07;;;1.57;;
71366;SDS011;60030;52.274;8.040;2023-02-28T12:44:28;2.05;;;1.80;;
71366;SDS011;60030;52.274;8.040;2023-02-28T12:47:01;2.20;;;1.50;;
71366;SDS011;60030;52.274;8.040;2023-02-28T12:49:31;2.30;;;1.40;;
71366;SDS011;60030;52.274;8.040;2023-02-28T12:52:01;2.30;;;1.80;;
71366;SDS011;60030;52.274;8.040;2023-02-28T12:54:31;1.67;;;1.57;;
71366;SDS011;60030;52.274;8.040;2023-02-28T12:57:08;1.93;;;1.40;;
71366;SDS011;60030;52.274;8.040;2023-02-28T12:59:39;2.73;;;1.90;;
71366;SDS011;60030;52.274;8.040;2023-02-28T13:05:25;3.00;;;1.90;;
71366;SDS011;60030;52.274;8.040;2023-02-28T13:11:27;3.57;;;2.07;;
71366;SDS011;60030;52.274;8.040;2023-02-28T13:13:58;2.87;;;1.87;;
71366;SDS011;60030;52.274;8.040;2023-02-28T13:16:26;5.63;;;1.93;;
71366;SDS011;60030;52.274;8.040;2023-02-28T13:18:56;3.57;;;2.23;;
71366;SDS011;60030;52.274;8.040;2023-02-28T13:21:41;2.37;;;1.70;;
71366;SDS011;60030;52.274;8.040;2023-02-28T13:24:11;4.10;;;2.10;;
71366;SDS011;60030;52.274;8.040;2023-02-28T13:36:22;2.30;;;2.00;;
71366;SDS011;60030;52.274;8.040;2023-02-28T13:38:54;2.37;;;2.00;;
71366;SDS011;60030;52.274;8.040;2023-02-28T13:41:42;3.57;;;2.30;;
71366;SDS011;60030;52.274;8.040;2023-02-28T13:44:15;2.50;;;2.30;;
71366;SDS011;60030;52.274;8.040;2023-02-28T13:49:47;4.13;;;2.00;;
71366;SDS011;60030;52.274;8.040;2023-02-28T13:52:16;2.20;;;1.87;;
71366;SDS011;60030;52.274;8.040;2023-02-28T13:57:54;3.90;;;2.17;;
71366;SDS011;60030;52.274;8.040;2023-02-28T14:00:45;2.37;;;1.67;;
71366;SDS011;60030;52.274;8.040;2023-02-28T14:03:28;2.20;;;1.60;;
71366;SDS011;60030;52.274;8.040;2023-02-28T14:06:10;2.97;;;2.00;;
71366;SDS011;60030;52.274;8.040;2023-02-28T14:08:49;2.17;;;1.87;;
71366;SDS011;60030;52.274;8.040;2023-02-28T14:11:24;2.40;;;1.77;;
71366;SDS011;60030;52.274;8.040;2023-02-28T14:13:54;1.97;;;1.80;;
71366;SDS011;60030;52.274;8.040;2023-02-28T14:16:24;3.43;;;2.60;;
71366;SDS011;60030;52.274;8.040;2023-02-28T14:18:56;6.93;;;3.17;;
71366;SDS011;60030;52.274;8.040;2023-02-28T14:21:27;2.83;;;2.40;;
71366;SDS011;60030;52.274;8.040;2023-02-28T14:27:00;5.97;;;2.27;;
71366;SDS011;60030;52.274;8.040;2023-02-28T14:30:01;2.63;;;1.90;;
71366;SDS011;60030;52.274;8.040;2023-02-28T14:32:43;2.20;;;1.60;;
71366;SDS011;60030;52.274;8.040;2023-02-28T14:35:19;3.10;;;1.80;;
71366;SDS011;60030;52.274;8.040;2023-02-28T14:37:55;4.23;;;1.80;;
71366;SDS011;60030;52.274;8.040;2023-02-28T14:40:25;7.83;;;4.73;;
71366;SDS011;60030;52.274;8.040;2023-02-28T14:42:55;2.43;;;1.70;;
71366;SDS011;60030;52.274;8.040;2023-02-28T14:45:24;3.57;;;2.40;;
71366;SDS011;60030;52.274;8.040;2023-02-28T14:47:56;2.83;;;2.30;;
71366;SDS011;60030;52.274;8.040;2023-02-28T14:50:27;3.73;;;2.00;;
71366;SDS011;60030;52.274;8.040;2023-02-28T14:52:57;3.53;;;1.90;;
71366;SDS011;60030;52.274;8.040;2023-02-28T14:55:25;3.00;;;1.83;;
71366;SDS011;60030;52.274;8.040;2023-02-28T14:57:55;3.57;;;2.43;;
71366;SDS011;60030;52.274;8.040;2023-02-28T15:00:25;3.53;;;2.17;;
71366;SDS011;60030;52.274;8.040;2023-02-28T15:02:54;3.97;;;1.90;;
71366;SDS011;60030;52.274;8.040;2023-02-28T15:05:25;1.93;;;1.53;;
71366;SDS011;60030;52.274;8.040;2023-02-28T15:08:03;2.17;;;1.97;;
71366;SDS011;60030;52.274;8.040;2023-02-28T15:10:33;3.23;;;2.10;;
71366;SDS011;60030;52.274;8.040;2023-02-28T15:13:01;3.23;;;2.30;;
71366;SDS011;60030;52.274;8.040;2023-02-28T15:15:34;2.47;;;1.93;;
71366;SDS011;60030;52.274;8.040;2023-02-28T15:18:10;2.10;;;1.80;;
71366;SDS011;60030;52.274;8.040;2023-02-28T15:20:50;2.47;;;2.10;;
71366;SDS011;60030;52.274;8.040;2023-02-28T15:23:18;4.43;;;2.27;;
71366;SDS011;60030;52.274;8.040;2023-02-28T15:25:47;4.63;;;2.00;;
71366;SDS011;60030;52.274;8.040;2023-02-28T15:28:16;2.47;;;2.20;;
71366;SDS011;60030;52.274;8.040;2023-02-28T15:30:53;2.87;;;2.00;;
71366;SDS011;60030;52.274;8.040;2023-02-28T15:33:23;3.13;;;1.97;;
71366;SDS011;60030;52.274;8.040;2023-02-28T15:36:02;6.70;;;2.10;;
71366;SDS011;60030;52.274;8.040;2023-02-28T15:38:33;3.17;;;2.10;;
71366;SDS011;60030;52.274;8.040;2023-02-28T15:41:01;4.03;;;2.13;;
71366;SDS011;60030;52.274;8.040;2023-02-28T15:43:34;3.43;;;2.00;;
71366;SDS011;60030;52.274;8.040;2023-02-28T15:46:03;2.40;;;2.13;;
71366;SDS011;60030;52.274;8.040;2023-02-28T15:48:33;2.70;;;2.20;;
71366;SDS011;60030;52.274;8.040;2023-02-28T15:51:05;2.63;;;2.17;;